createdAt,value
2022-11-01T00:01:16.053Z,9.70
2022-11-01T00:03:42.312Z,11.10
2022-11-01T00:06:08.552Z,11.52
2022-11-01T00:08:34.927Z,9.23
2022-11-01T00:11:08.316Z,9.60
2022-11-01T00:13:34.503Z,11.75
2022-11-01T00:16:00.783Z,9.75
2022-11-01T00:18:30.754Z,11.95
2022-11-01T00:20:57.072Z,9.90
2022-11-01T00:23:23.258Z,11.80
2022-11-01T00:25:49.567Z,16.15
2022-11-01T00:28:15.794Z,10.40
2022-11-01T00:30:42.294Z,9.55
2022-11-01T00:33:08.569Z,13.07
2022-11-01T00:35:37.057Z,11.15
2022-11-01T00:38:05.071Z,12.13
2022-11-01T00:40:31.320Z,14.73
2022-11-01T00:42:57.541Z,9.13
2022-11-01T00:45:23.831Z,9.00
2022-11-01T00:47:50.038Z,11.02
2022-11-01T00:50:16.275Z,9.98
2022-11-01T00:52:42.464Z,11.45
2022-11-01T00:55:08.889Z,11.35
2022-11-01T00:57:35.276Z,9.55
2022-11-01T01:00:01.833Z,11.93
2022-11-01T01:02:28.120Z,11.55
2022-11-01T01:04:54.751Z,12.32
2022-11-01T01:07:20.983Z,11.57
2022-11-01T01:09:47.162Z,9.32
2022-11-01T01:12:13.722Z,13.30
2022-11-01T01:14:40.031Z,10.98
2022-11-01T01:17:06.284Z,9.02
2022-11-01T01:19:32.519Z,10.98
2022-11-01T01:21:58.831Z,12.77
2022-11-01T01:24:25.008Z,10.57
2022-11-01T01:26:51.215Z,9.15
2022-11-01T01:29:17.406Z,10.45
2022-11-01T01:31:43.633Z,10.77
2022-11-01T01:34:09.819Z,10.15
2022-11-01T01:36:36.070Z,11.95
2022-11-01T01:39:02.275Z,10.52
2022-11-01T01:41:46.927Z,9.00
2022-11-01T01:44:31.899Z,10.90
2022-11-01T01:46:58.135Z,8.73
2022-11-01T01:49:24.311Z,10.43
2022-11-01T01:51:51.188Z,12.55
2022-11-01T01:54:17.434Z,9.68
2022-11-01T01:56:43.867Z,13.15
2022-11-01T01:59:10.839Z,11.43
2022-11-01T02:01:38.933Z,9.18
2022-11-01T02:04:07.324Z,10.18
2022-11-01T02:06:34.618Z,10.90
2022-11-01T02:09:02.541Z,10.93
2022-11-01T02:11:28.869Z,9.15
2022-11-01T02:13:55.458Z,13.75
2022-11-01T02:16:21.664Z,7.47
2022-11-01T02:18:52.825Z,9.13
2022-11-01T02:21:19.064Z,8.63
2022-11-01T02:24:07.063Z,8.70
2022-11-01T02:26:51.826Z,10.02
2022-11-01T02:29:20.752Z,9.05
2022-11-01T02:31:59.880Z,9.43
2022-11-01T02:34:28.520Z,9.63
2022-11-01T02:37:10.079Z,10.57
2022-11-01T02:39:39.428Z,10.88
2022-11-01T02:42:11.909Z,9.65
2022-11-01T02:44:40.266Z,5.80
2022-11-01T02:47:07.061Z,8.40
2022-11-01T02:52:26.590Z,7.63
2022-11-01T02:54:55.825Z,7.13
2022-11-01T02:57:29.935Z,10.13
2022-11-01T03:00:05.541Z,10.25
2022-11-01T03:02:40.833Z,14.57
2022-11-01T03:05:07.061Z,8.73
2022-11-01T03:07:33.324Z,7.22
2022-11-01T03:10:00.590Z,9.70
2022-11-01T03:15:00.057Z,7.90
2022-11-01T03:17:33.938Z,8.27
2022-11-01T03:20:08.032Z,5.50
2022-11-01T03:22:40.154Z,7.07
2022-11-01T03:25:40.694Z,6.88
2022-11-01T03:28:20.895Z,7.05
2022-11-01T03:30:52.581Z,4.47
2022-11-01T03:33:20.334Z,7.88
2022-11-01T03:35:48.355Z,8.15
2022-11-01T03:38:17.013Z,7.15
2022-11-01T03:40:46.765Z,7.40
2022-11-01T03:43:15.188Z,6.20
2022-11-01T03:45:41.732Z,5.75
2022-11-01T03:48:08.093Z,5.45
2022-11-01T03:50:34.389Z,5.57
2022-11-01T03:53:00.594Z,5.07
2022-11-01T03:55:26.923Z,6.57
2022-11-01T03:57:57.361Z,6.63
2022-11-01T04:00:25.142Z,8.32
2022-11-01T04:02:51.920Z,8.35
2022-11-01T04:05:19.057Z,6.53
2022-11-01T04:07:45.363Z,5.05
2022-11-01T04:10:12.029Z,7.38
2022-11-01T04:12:38.366Z,7.57
2022-11-01T04:15:23.893Z,9.00
2022-11-01T04:18:21.339Z,6.20
2022-11-01T04:20:47.549Z,6.78
2022-11-01T04:23:13.765Z,6.82
2022-11-01T04:25:39.935Z,5.70
2022-11-01T04:28:06.139Z,6.47
2022-11-01T04:30:32.391Z,6.10
2022-11-01T04:32:58.769Z,5.40
2022-11-01T04:35:25.170Z,7.93
2022-11-01T04:37:57.823Z,6.35
2022-11-01T04:40:24.583Z,4.88
2022-11-01T04:42:50.782Z,7.20
2022-11-01T04:45:17.242Z,6.50
2022-11-01T04:47:50.801Z,6.18
2022-11-01T04:50:17.236Z,5.53
2022-11-01T04:52:43.410Z,4.57
2022-11-01T04:55:09.651Z,5.57
2022-11-01T04:57:39.799Z,8.93
2022-11-01T05:00:06.887Z,10.90
2022-11-01T05:02:33.069Z,5.15
2022-11-01T05:04:59.270Z,5.60
2022-11-01T05:07:25.453Z,8.75
2022-11-01T05:09:51.658Z,7.15
2022-11-01T05:12:19.087Z,6.72
2022-11-01T05:14:45.293Z,8.32
2022-11-01T05:17:11.795Z,7.88
2022-11-01T05:19:37.998Z,5.88
2022-11-01T05:22:05.147Z,6.55
2022-11-01T05:24:31.391Z,5.75
2022-11-01T05:26:57.805Z,4.75
2022-11-01T05:29:31.368Z,6.47
2022-11-01T05:31:59.129Z,8.30
2022-11-01T05:34:25.354Z,6.70
2022-11-01T05:36:51.536Z,6.82
2022-11-01T05:39:17.742Z,6.88
2022-11-01T05:41:43.948Z,5.80
2022-11-01T05:44:10.150Z,7.38
2022-11-01T05:46:36.387Z,4.35
2022-11-01T05:49:05.214Z,6.22
2022-11-01T05:51:31.431Z,5.40
2022-11-01T05:53:57.621Z,4.78
2022-11-01T05:56:23.799Z,6.97
2022-11-01T05:58:50.012Z,4.40
2022-11-01T06:01:17.777Z,8.73
2022-11-01T06:03:44.175Z,3.80
2022-11-01T06:06:10.787Z,5.53
2022-11-01T06:08:36.997Z,5.05
2022-11-01T06:11:04.376Z,5.38
2022-11-01T06:13:31.435Z,7.05
2022-11-01T06:18:49.687Z,4.70
2022-11-01T06:21:16.806Z,3.05
2022-11-01T06:23:46.745Z,6.93
2022-11-01T06:26:13.083Z,5.53
2022-11-01T06:28:39.450Z,6.32
2022-11-01T06:33:36.991Z,2.55
2022-11-01T06:36:04.394Z,3.65
2022-11-01T06:38:30.584Z,5.00
2022-11-01T06:40:56.803Z,5.60
2022-11-01T06:43:23.010Z,4.80
2022-11-01T06:45:49.234Z,3.67
2022-11-01T06:48:15.538Z,4.80
2022-11-01T06:50:41.723Z,4.38
2022-11-01T06:53:09.101Z,5.15
2022-11-01T06:55:35.405Z,3.28
2022-11-01T06:58:05.451Z,6.28
2022-11-01T07:00:32.295Z,2.85
2022-11-01T07:05:50.236Z,4.93
2022-11-01T07:08:16.849Z,3.42
2022-11-01T07:10:43.292Z,4.00
2022-11-01T07:13:10.445Z,3.83
2022-11-01T07:15:36.874Z,2.40
2022-11-01T07:18:05.879Z,6.43
2022-11-01T07:20:50.863Z,4.55
2022-11-01T07:26:07.499Z,3.25
2022-11-01T07:28:33.813Z,3.40
2022-11-01T07:31:00.066Z,5.05
2022-11-01T07:33:26.397Z,1.05
2022-11-01T07:35:52.718Z,2.22
2022-11-01T07:38:19.367Z,5.55
2022-11-01T07:40:49.472Z,1.58
2022-11-01T07:43:17.196Z,2.58
2022-11-01T07:45:43.508Z,3.72
2022-11-01T07:48:14.861Z,3.67
2022-11-01T07:50:41.713Z,2.13
2022-11-01T07:53:09.904Z,3.03
2022-11-01T07:55:36.764Z,1.98
2022-11-01T07:58:05.100Z,6.63
2022-11-01T08:00:31.901Z,5.68
2022-11-01T08:05:52.946Z,5.65
2022-11-01T08:08:19.482Z,3.72
2022-11-01T08:10:46.063Z,7.60
2022-11-01T08:13:15.353Z,7.60
2022-11-01T08:15:41.543Z,10.23
2022-11-01T08:18:08.349Z,4.70
2022-11-01T08:20:34.667Z,8.48
2022-11-01T08:23:01.158Z,3.97
2022-11-01T08:25:28.013Z,6.53
2022-11-01T08:27:54.242Z,8.02
2022-11-01T08:30:20.450Z,9.52
2022-11-01T08:32:46.851Z,6.28
2022-11-01T08:35:13.305Z,8.20
2022-11-01T08:37:52.030Z,7.15
2022-11-01T08:40:18.448Z,5.55
2022-11-01T08:42:44.894Z,6.28
2022-11-01T08:45:11.857Z,5.70
2022-11-01T08:47:38.603Z,6.75
2022-11-01T08:50:08.697Z,9.23
2022-11-01T08:52:37.355Z,3.75
2022-11-01T08:55:04.885Z,6.03
2022-11-01T08:57:31.095Z,5.70
2022-11-01T08:59:57.320Z,7.28
2022-11-01T09:02:23.622Z,8.98
2022-11-01T09:04:49.905Z,7.55
2022-11-01T09:07:16.122Z,10.38
2022-11-01T09:12:33.038Z,5.07
2022-11-01T09:14:59.331Z,7.22
2022-11-01T09:17:25.664Z,4.72
2022-11-01T09:19:52.077Z,6.53
2022-11-01T09:22:18.258Z,10.38
2022-11-01T09:24:44.455Z,4.85
2022-11-01T09:27:11.053Z,8.48
2022-11-01T09:29:37.422Z,10.95
2022-11-01T09:32:04.036Z,6.05
2022-11-01T09:34:30.251Z,8.55
2022-11-01T09:36:56.532Z,4.15
2022-11-01T09:39:22.745Z,4.20
2022-11-01T09:41:50.955Z,8.10
2022-11-01T09:44:23.548Z,3.65
2022-11-01T09:46:53.491Z,4.07
2022-11-01T09:49:23.692Z,5.45
2022-11-01T09:51:50.058Z,5.82
2022-11-01T09:54:17.582Z,4.90
2022-11-01T09:56:53.443Z,5.60
2022-11-01T09:59:32.854Z,5.75
2022-11-01T10:02:18.927Z,6.75
2022-11-01T10:04:45.197Z,5.07
2022-11-01T10:07:17.007Z,4.15
2022-11-01T10:09:49.074Z,3.88
2022-11-01T10:12:29.440Z,3.20
2022-11-01T10:14:55.701Z,3.80
2022-11-01T10:17:34.545Z,5.25
2022-11-01T10:22:40.372Z,2.40
2022-11-01T10:25:23.016Z,4.72
2022-11-01T10:27:54.698Z,4.63
2022-11-01T10:30:21.085Z,4.07
2022-11-01T10:32:49.692Z,4.22
2022-11-01T10:35:19.566Z,4.03
2022-11-01T10:38:22.822Z,5.00
2022-11-01T10:43:43.045Z,2.38
2022-11-01T10:46:13.244Z,9.55
2022-11-01T10:48:44.312Z,4.80
2022-11-01T10:51:11.593Z,3.40
2022-11-01T10:53:46.384Z,3.00
2022-11-01T10:59:11.972Z,4.97
2022-11-01T11:01:39.783Z,3.80
2022-11-01T11:04:07.676Z,4.63
2022-11-01T11:06:34.740Z,6.30
2022-11-01T11:09:06.686Z,5.30
2022-11-01T11:11:38.967Z,3.85
2022-11-01T11:16:57.539Z,8.77
2022-11-01T11:19:24.342Z,3.78
2022-11-01T11:21:52.112Z,4.93
2022-11-01T11:24:19.788Z,4.25
2022-11-01T11:26:52.913Z,5.45
2022-11-01T11:29:33.996Z,4.45
2022-11-01T11:32:01.125Z,6.50
2022-11-01T11:34:34.591Z,6.57
2022-11-01T11:37:01.567Z,4.93
2022-11-01T11:39:30.169Z,7.72
2022-11-01T11:42:15.012Z,7.43
2022-11-01T11:44:44.001Z,10.43
2022-11-01T11:47:34.700Z,6.88
2022-11-01T11:50:16.648Z,9.17
2022-11-01T11:52:43.407Z,5.88
2022-11-01T11:55:28.212Z,5.15
2022-11-01T11:57:55.421Z,5.55
2022-11-01T12:00:23.483Z,5.53
2022-11-01T12:05:50.612Z,5.90
2022-11-01T12:08:37.894Z,5.03
2022-11-01T12:11:04.915Z,4.68
2022-11-01T12:13:38.876Z,7.43
2022-11-01T12:16:21.552Z,6.03
2022-11-01T12:18:49.275Z,4.63
2022-11-01T12:21:20.433Z,6.88
2022-11-01T12:26:40.055Z,4.75
2022-11-01T12:29:25.017Z,5.65
2022-11-01T12:31:51.389Z,7.95
2022-11-01T12:34:20.610Z,5.68
2022-11-01T12:36:55.562Z,4.20
2022-11-01T12:42:41.092Z,4.85
2022-11-01T12:45:15.269Z,5.40
2022-11-01T12:47:45.693Z,4.88
2022-11-01T12:50:20.517Z,6.63
2022-11-01T12:52:49.896Z,5.55
2022-11-01T12:55:20.996Z,6.05
2022-11-01T13:00:15.521Z,2.95
2022-11-01T13:03:00.825Z,6.90
2022-11-01T13:05:33.153Z,7.35
2022-11-01T13:08:11.510Z,7.07
2022-11-01T13:13:30.420Z,6.30
2022-11-01T13:16:05.861Z,5.38
2022-11-01T13:18:49.115Z,9.32
2022-11-01T13:21:15.459Z,4.70
2022-11-01T13:23:41.633Z,5.60
2022-11-01T13:26:13.207Z,6.93
2022-11-01T13:28:48.804Z,6.10
2022-11-01T13:31:30.459Z,5.53
2022-11-01T13:34:09.351Z,8.05
2022-11-01T13:36:38.558Z,5.68
2022-11-01T13:39:19.442Z,6.65
2022-11-01T13:41:57.056Z,6.07
2022-11-01T13:44:29.156Z,8.40
2022-11-01T13:47:08.228Z,5.60
2022-11-01T13:49:40.667Z,8.70
2022-11-01T13:52:21.611Z,5.60
2022-11-01T13:54:51.874Z,5.93
2022-11-01T13:57:19.721Z,8.60
2022-11-01T13:59:56.712Z,10.90
2022-11-01T14:02:23.704Z,4.85
2022-11-01T14:05:08.361Z,7.13
2022-11-01T14:07:38.623Z,5.75
2022-11-01T14:10:10.403Z,4.72
2022-11-01T14:12:44.899Z,7.88
2022-11-01T14:15:17.642Z,4.93
2022-11-01T14:20:41.963Z,4.82
2022-11-01T14:23:40.600Z,8.38
2022-11-01T14:26:18.809Z,6.00
2022-11-01T14:28:48.677Z,5.45
2022-11-01T14:31:15.648Z,4.70
2022-11-01T14:33:42.313Z,6.00
2022-11-01T14:36:10.490Z,5.78
2022-11-01T14:38:39.494Z,3.75
2022-11-01T14:41:06.712Z,6.13
2022-11-01T14:43:34.814Z,6.05
2022-11-01T14:46:07.374Z,5.63
2022-11-01T14:48:36.859Z,6.38
2022-11-01T14:51:14.868Z,5.63
2022-11-01T14:53:42.301Z,4.53
2022-11-01T14:56:16.277Z,4.72
2022-11-01T14:58:43.135Z,7.97
2022-11-01T15:01:14.804Z,5.18
2022-11-01T15:03:46.253Z,6.35
2022-11-01T15:06:22.592Z,5.55
2022-11-01T15:08:48.811Z,4.20
2022-11-01T15:11:15.224Z,5.78
2022-11-01T15:13:42.986Z,6.43
2022-11-01T15:16:14.265Z,6.20
2022-11-01T15:19:00.779Z,5.63
2022-11-01T15:21:30.843Z,8.15
2022-11-01T15:23:57.863Z,10.88
2022-11-01T15:26:25.382Z,7.47
2022-11-01T15:28:55.126Z,8.57
2022-11-01T15:31:21.800Z,6.20
2022-11-01T15:33:56.242Z,5.75
2022-11-01T15:36:27.363Z,9.05
2022-11-01T15:38:54.853Z,6.60
2022-11-01T15:41:34.372Z,8.95
2022-11-01T15:44:01.777Z,10.32
2022-11-01T15:46:38.729Z,7.85
2022-11-01T15:49:07.534Z,7.00
2022-11-01T15:51:36.811Z,9.10
2022-11-01T15:54:05.669Z,8.35
2022-11-01T15:56:43.848Z,5.95
2022-11-01T15:59:16.627Z,4.28
2022-11-01T16:01:43.276Z,6.38
2022-11-01T16:04:11.780Z,5.75
2022-11-01T16:06:41.095Z,6.80
2022-11-01T16:09:20.745Z,8.98
2022-11-01T16:11:47.479Z,7.63
2022-11-01T16:14:20.922Z,7.70
2022-11-01T16:16:57.200Z,5.10
2022-11-01T16:19:29.784Z,11.35
2022-11-01T16:21:55.995Z,6.88
2022-11-01T16:24:22.667Z,7.60
2022-11-01T16:26:56.078Z,7.00
2022-11-01T16:29:38.451Z,7.60
2022-11-01T16:32:15.512Z,10.23
2022-11-01T16:34:41.734Z,7.93
2022-11-01T16:37:23.638Z,6.93
2022-11-01T16:39:49.991Z,7.13
2022-11-01T16:42:17.018Z,4.78
2022-11-01T16:44:44.126Z,6.07
2022-11-01T16:47:14.782Z,6.30
2022-11-01T16:49:51.482Z,9.83
2022-11-01T16:52:18.355Z,6.47
2022-11-01T16:54:47.644Z,6.55
2022-11-01T16:57:27.673Z,10.75
2022-11-01T16:59:54.614Z,8.40
2022-11-01T17:02:23.017Z,7.10
2022-11-01T17:04:58.403Z,7.38
2022-11-01T17:10:22.151Z,10.10
2022-11-01T17:12:48.449Z,7.53
2022-11-01T17:15:15.022Z,8.20
2022-11-01T17:20:33.790Z,7.80
2022-11-01T17:23:00.305Z,11.63
2022-11-01T17:25:28.682Z,9.10
2022-11-01T17:27:55.235Z,8.30
2022-11-01T17:30:21.672Z,6.45
2022-11-01T17:32:48.075Z,8.57
2022-11-01T17:35:15.392Z,8.25
2022-11-01T17:37:42.251Z,8.10
2022-11-01T17:40:28.812Z,10.60
2022-11-01T17:42:55.036Z,9.98
2022-11-01T17:45:22.703Z,7.90
2022-11-01T17:47:51.032Z,11.25
2022-11-01T17:50:17.251Z,9.68
2022-11-01T17:52:43.655Z,12.90
2022-11-01T17:55:10.268Z,14.80
2022-11-01T17:57:36.444Z,10.20
2022-11-01T18:00:05.237Z,8.52
2022-11-01T18:02:32.054Z,12.23
2022-11-01T18:04:58.333Z,12.25
2022-11-01T18:07:26.431Z,13.38
2022-11-01T18:09:53.181Z,11.05
2022-11-01T18:12:26.463Z,10.38
2022-11-01T18:15:01.284Z,12.32
2022-11-01T18:17:34.208Z,9.73
2022-11-01T18:20:06.236Z,9.68
2022-11-01T18:22:47.379Z,6.97
2022-11-01T18:25:22.716Z,13.10
2022-11-01T18:27:49.403Z,8.50
2022-11-01T18:30:17.557Z,10.68
2022-11-01T18:32:57.320Z,12.45
2022-11-01T18:35:26.044Z,10.90
2022-11-01T18:38:05.870Z,7.53
2022-11-01T18:40:53.728Z,12.60
2022-11-01T18:43:20.102Z,11.40
2022-11-01T18:46:18.719Z,10.52
2022-11-01T18:48:32.500Z,9.38
2022-11-01T18:51:04.994Z,8.38
2022-11-01T18:53:32.676Z,11.57
2022-11-01T18:56:15.977Z,12.57
2022-11-01T18:58:42.367Z,12.85
2022-11-01T19:01:13.414Z,8.98
2022-11-01T19:03:40.227Z,6.70
2022-11-01T19:06:15.266Z,7.10
2022-11-01T19:11:32.127Z,10.00
2022-11-01T19:13:59.495Z,10.00
2022-11-01T19:16:25.954Z,8.95
2022-11-01T19:18:52.463Z,13.27
2022-11-01T19:21:19.840Z,9.48
2022-11-01T19:23:48.400Z,7.03
2022-11-01T19:26:27.555Z,9.23
2022-11-01T19:31:45.027Z,8.43
2022-11-01T19:34:22.619Z,8.40
2022-11-01T19:36:49.694Z,10.93
2022-11-01T19:39:19.178Z,11.90
2022-11-01T19:41:45.624Z,9.07
2022-11-01T19:44:13.714Z,12.15
2022-11-01T19:46:39.914Z,13.23
2022-11-01T19:49:15.154Z,8.70
2022-11-01T19:51:41.497Z,12.77
2022-11-01T19:54:10.042Z,9.02
2022-11-01T19:56:36.230Z,10.32
2022-11-01T19:59:04.598Z,8.65
2022-11-01T20:01:33.294Z,10.18
2022-11-01T20:04:01.107Z,10.63
2022-11-01T20:06:27.380Z,10.27
2022-11-01T20:08:54.866Z,7.47
2022-11-01T20:11:21.099Z,12.10
2022-11-01T20:13:47.581Z,11.73
2022-11-01T20:16:13.850Z,13.20
2022-11-01T20:18:40.157Z,8.48
2022-11-01T20:21:06.757Z,9.98
2022-11-01T20:23:33.894Z,10.82
2022-11-01T20:26:00.688Z,9.63
2022-11-01T20:28:27.159Z,7.60
2022-11-01T20:30:53.449Z,8.20
2022-11-01T20:33:19.718Z,11.27
2022-11-01T20:35:45.961Z,8.93
2022-11-01T20:38:12.220Z,10.77
2022-11-01T20:40:38.441Z,7.43
2022-11-01T20:43:06.470Z,8.32
2022-11-01T20:45:34.768Z,11.35
2022-11-01T20:50:52.171Z,10.87
2022-11-01T20:53:18.391Z,7.20
2022-11-01T20:55:44.752Z,8.32
2022-11-01T20:58:11.332Z,8.32
2022-11-01T21:00:37.686Z,13.65
2022-11-01T21:03:11.180Z,12.27
2022-11-01T21:05:37.386Z,11.30
2022-11-01T21:08:09.809Z,10.20
2022-11-01T21:10:40.083Z,9.43
2022-11-01T21:13:24.434Z,8.82
2022-11-01T21:15:51.774Z,9.35
2022-11-01T21:18:18.067Z,5.63
2022-11-01T21:20:45.137Z,13.32
2022-11-01T21:23:20.217Z,11.23
2022-11-01T21:25:46.643Z,13.43
2022-11-01T21:28:27.814Z,12.57
2022-11-01T21:30:54.573Z,11.98
2022-11-01T21:33:30.139Z,8.98
2022-11-01T21:35:57.553Z,7.03
2022-11-01T21:38:32.028Z,10.02
2022-11-01T21:40:59.338Z,9.82
2022-11-01T21:43:30.963Z,8.38
2022-11-01T21:48:26.787Z,7.50
2022-11-01T21:50:52.965Z,7.43
2022-11-01T21:53:19.179Z,8.82
2022-11-01T21:55:45.408Z,9.02
2022-11-01T21:58:11.661Z,10.15
2022-11-01T22:00:37.850Z,7.93
2022-11-01T22:05:54.264Z,9.18
2022-11-01T22:08:20.493Z,5.53
2022-11-01T22:10:46.672Z,8.65
2022-11-01T22:16:07.747Z,8.00
2022-11-01T22:18:34.207Z,17.03
2022-11-01T22:21:00.439Z,6.93
2022-11-01T22:23:26.640Z,12.45
2022-11-01T22:25:52.827Z,11.73
2022-11-01T22:28:19.076Z,10.13
2022-11-01T22:30:45.349Z,8.80
2022-11-01T22:33:11.688Z,7.53
2022-11-01T22:35:37.878Z,12.02
2022-11-01T22:38:15.413Z,6.63
2022-11-01T22:40:42.296Z,12.45
2022-11-01T22:43:15.251Z,8.38
2022-11-01T22:45:41.458Z,9.90
2022-11-01T22:48:15.075Z,10.07
2022-11-01T22:50:41.268Z,8.73
2022-11-01T22:53:13.045Z,10.85
2022-11-01T22:55:41.757Z,7.47
2022-11-01T23:01:26.033Z,10.43
2022-11-01T23:03:56.969Z,10.20
2022-11-01T23:06:34.124Z,9.35
2022-11-01T23:09:17.513Z,6.68
2022-11-01T23:12:04.621Z,8.82
2022-11-01T23:14:37.257Z,10.93
2022-11-01T23:17:19.037Z,7.75
2022-11-01T23:19:45.349Z,8.30
2022-11-01T23:22:15.694Z,9.88
2022-11-01T23:24:41.886Z,15.10
2022-11-01T23:29:59.812Z,7.22
2022-11-01T23:35:18.910Z,11.85
2022-11-01T23:37:45.292Z,9.30
2022-11-01T23:40:13.625Z,9.45
2022-11-01T23:42:39.821Z,10.15
2022-11-01T23:45:13.076Z,10.10
2022-11-01T23:47:40.206Z,6.63
2022-11-01T23:50:12.588Z,12.43
2022-11-01T23:52:41.862Z,9.20
2022-11-01T23:55:34.343Z,6.78
2022-11-01T23:58:04.938Z,9.05
